• Join FlightAware (Why Join?)
  • Login
  • US Flag 
01:29AM EDT


 

Airport Tracker/Info


-or-


 

Live Flight TrackerFlight Track Log ✈ GGN7335 ✈ 23-Apr-2013 ✈ CYHZ - CYSJ

Flight Track Log - Related Links

Times and Time Zones

All times are in EDT time to prevent confusion due to time zone crossing. See the GGN7335 flight status page for this flight to view local times or setup timezone preferences in your user account.

Time Position Orientation Groundspeed Altitude Reporting Facility
EDT Latitude Longitude Course Direction KTS MPH feet Rate Location/Type
10:14PM 44.8667 -63.5000 90° East 10 12 500  Level Moncton Center
10:15PM 44.8667 -63.4833 90° East 120 138 1,500 1,620 Climbing Moncton Center
10:16PM 44.8333 -63.5000 200° South 140 161 3,800 2,280 Climbing Moncton Center
10:17PM 44.8333 -63.5667 270° West 190 219 6,100 2,100 Climbing Moncton Center
10:18PM 44.8333 -63.6500 270° West 180 207 8,000 1,680 Climbing Moncton Center
10:19PM 44.8333 -63.7167 270° West 190 219 9,500 1,500 Climbing Moncton Center
10:20PM 44.8500 -63.8000 286° West 200 230 11,000 1,200 Climbing Moncton Center
10:21PM 44.8500 -63.8833 270° West 200 230 12,000 540 Climbing Moncton Center
10:22PM 44.8667 -63.9667 286° West 220 253 12,100  Climbing Moncton Center
10:23PM 44.8833 -64.0500 286° West 230 265 12,100  Level Moncton Center
10:24PM 44.9000 -64.1333 286° West 230 265 12,100  Level Moncton Center
10:25PM 44.9000 -64.2333 270° West 230 265 12,100  Level Moncton Center
10:26PM 44.9167 -64.3000 289° West 230 265 12,100  Level Moncton Center
10:27PM 44.9333 -64.4000 283° West 220 253 12,100  Level Moncton Center
10:28PM 44.9333 -64.4833 270° West 220 253 12,100 -60 Level Moncton Center
10:29PM 44.9500 -64.5833 283° West 220 253 12,000 -60 Descending Moncton Center
10:30PM 44.9667 -64.6500 289° West 230 265 12,000  Level Moncton Center
10:31PM 44.9667 -64.7500 270° West 230 265 12,000  Level Moncton Center
10:32PM 44.9833 -64.8500 283° West 230 265 12,000  Level Moncton Center
10:33PM 45.0000 -64.9333 286° West 230 265 12,000  Level Moncton Center
10:34PM 45.0000 -65.0167 270° West 230 265 12,000  Level Moncton Center
10:35PM 45.0167 -65.1000 286° West 230 265 12,000  Level Moncton Center
10:36PM 45.0333 -65.2000 283° West 230 265 12,000 -420 Level Moncton Center
10:37PM 45.0500 -65.3000 283° West 230 265 11,200 -960 Descending Moncton Center
10:38PM 45.0500 -65.3833 270° West 250 288 10,100 -1,200 Descending Moncton Center
10:39PM 45.0667 -65.4833 283° West 260 299 8,900 -1,200 Descending Moncton Center
10:40PM 45.0833 -65.5833 283° West 250 288 7,800 -1,020 Descending Moncton Center
10:41PM 45.1000 -65.6500 290° West 230 265 6,900 -1,200 Descending Moncton Center
10:42PM 45.1000 -65.7500 270° West 220 253 5,500 -1,440 Descending Moncton Center
10:43PM 45.1167 -65.8500 283° West 220 253 4,100 -1,500 Descending Moncton Center
10:44PM 45.1167 -65.9167 270° West 210 242 2,600 -900 Descending Moncton Center
10:45PM 45.1500 -65.9833 305° West 210 242 2,400 -120 Descending Moncton Center
10:46PM 45.1833 -65.9833 360° North 170 196 2,400 -300 Level Moncton Center
10:47PM 45.2333 -65.9333 35° Northeast 160 184 1,900 -600 Descending Moncton Center
10:48PM 45.2500 -65.9167 35° Northeast 130 150 1,200 -600 Descending Moncton Center
10:49PM 45.2833 -65.9000 19° North 130 150 700 -540 Descending Moncton Center